Time;durP1;ratioP1;P1;durP2;ratioP2;P2;SDS_P1;SDS_P2;PMS_P1;PMS_P2;Temp;Humidity;BMP_temperature;BMP_pressure;BME280_temperature;BME280_humidity;BME280_pressure;Samples;Min_cycle;Max_cycle;Signal;HPM_P1;HPM_P2
2022/03/21 00:00:38;;;;;;;40.73;20.40;;;2.10;99.90;;;;;;5041038;28;20031;-79
2022/03/21 00:03:06;;;;;;;32.00;16.47;;;2.00;99.90;;;;;;5051161;28;20079;-78
2022/03/21 00:05:32;;;;;;;22.93;12.30;;;2.00;99.90;;;;;;5051195;28;20125;-78
2022/03/21 00:07:57;;;;;;;18.77;11.70;;;2.00;99.90;;;;;;5050229;28;20413;-79
2022/03/21 00:10:23;;;;;;;21.20;11.13;;;2.00;99.90;;;;;;5051369;28;20036;-79
2022/03/21 00:12:51;;;;;;;30.57;13.30;;;2.00;99.90;;;;;;5050773;28;20063;-78
2022/03/21 00:15:17;;;;;;;52.23;20.90;;;2.00;99.90;;;;;;5050688;28;20013;-78
2022/03/21 00:17:43;;;;;;;31.93;14.63;;;1.90;99.90;;;;;;5050967;28;20382;-79
2022/03/21 00:20:11;;;;;;;21.37;11.50;;;2.00;99.90;;;;;;5051216;28;20025;-79
2022/03/21 00:22:37;;;;;;;20.47;11.53;;;1.90;99.90;;;;;;5050038;28;20060;-78
2022/03/21 00:25:05;;;;;;;21.10;11.53;;;1.90;99.90;;;;;;5051516;28;20380;-78
2022/03/21 00:27:35;;;;;;;21.53;11.07;;;1.80;99.90;;;;;;5051471;28;20407;-78
2022/03/21 00:30:02;;;;;;;25.03;13.27;;;1.80;99.90;;;;;;5051250;28;20032;-79
2022/03/21 00:32:28;;;;;;;20.53;11.73;;;1.70;99.90;;;;;;5051334;28;20017;-79
2022/03/21 00:34:54;;;;;;;23.80;12.17;;;1.60;99.90;;;;;;5050092;28;20123;-79
2022/03/21 00:37:20;;;;;;;21.90;11.90;;;1.60;99.90;;;;;;5051171;28;20043;-79
2022/03/21 00:39:46;;;;;;;23.97;12.63;;;1.60;99.90;;;;;;5049806;28;20025;-79
2022/03/21 00:42:11;;;;;;;24.83;11.77;;;1.50;99.90;;;;;;5051258;28;20493;-78
2022/03/21 00:44:37;;;;;;;20.80;11.60;;;1.60;99.90;;;;;;5050996;28;20496;-77
2022/03/21 00:47:04;;;;;;;21.77;12.20;;;1.50;99.90;;;;;;5052637;28;20049;-77
2022/03/21 00:49:29;;;;;;;20.03;11.10;;;1.60;99.90;;;;;;5055014;28;20031;-78
2022/03/21 00:51:55;;;;;;;27.97;11.77;;;1.50;99.90;;;;;;5054694;28;20088;-78
2022/03/21 00:54:20;;;;;;;21.80;10.87;;;1.50;99.90;;;;;;5053641;28;20025;-78
2022/03/21 00:56:46;;;;;;;18.50;10.60;;;1.50;99.90;;;;;;5054829;28;20013;-78
2022/03/21 00:59:11;;;;;;;18.17;10.83;;;1.50;99.90;;;;;;5044888;28;20041;-79
2022/03/21 01:01:37;;;;;;;18.47;9.67;;;1.40;99.90;;;;;;5053499;28;20108;-78
2022/03/21 01:04:03;;;;;;;26.03;12.03;;;1.40;99.90;;;;;;5054933;28;20021;-78
2022/03/21 01:06:29;;;;;;;37.40;14.83;;;1.40;99.90;;;;;;5055084;28;20025;-78
2022/03/21 01:08:55;;;;;;;29.23;13.33;;;1.40;99.90;;;;;;5055042;28;20497;-78
2022/03/21 01:11:22;;;;;;;27.23;13.07;;;1.40;99.90;;;;;;5054801;28;20123;-78
2022/03/21 01:13:48;;;;;;;19.57;11.27;;;1.40;99.90;;;;;;5054361;28;20033;-78
2022/03/21 01:16:15;;;;;;;16.23;10.57;;;1.30;99.90;;;;;;5054388;28;20013;-78
2022/03/21 01:18:41;;;;;;;22.27;11.70;;;1.30;99.90;;;;;;5054884;28;20025;-78
2022/03/21 01:21:07;;;;;;;18.57;11.13;;;1.20;99.90;;;;;;5054571;28;20407;-78
2022/03/21 01:23:33;;;;;;;24.50;12.53;;;1.10;99.90;;;;;;5054162;28;20130;-78
2022/03/21 01:25:58;;;;;;;20.67;11.30;;;1.10;99.90;;;;;;5052968;28;20155;-78
2022/03/21 01:28:24;;;;;;;20.37;10.80;;;1.00;99.90;;;;;;5054156;28;20474;-78
2022/03/21 01:30:49;;;;;;;17.50;9.97;;;1.00;99.90;;;;;;5054051;28;20466;-78
2022/03/21 01:33:15;;;;;;;18.93;10.53;;;0.90;99.90;;;;;;5053129;28;20032;-78
2022/03/21 01:35:40;;;;;;;16.83;10.53;;;0.90;99.90;;;;;;5054216;28;20024;-78
2022/03/21 01:38:06;;;;;;;17.00;10.03;;;0.90;99.90;;;;;;5054118;28;20032;-78
2022/03/21 01:40:31;;;;;;;20.37;11.37;;;0.80;99.90;;;;;;5054150;28;20027;-78
2022/03/21 01:42:59;;;;;;;14.47;9.73;;;0.80;99.90;;;;;;5053980;28;20128;-78
2022/03/21 01:45:27;;;;;;;15.63;10.40;;;0.70;99.90;;;;;;5054138;28;20026;-78
2022/03/21 01:47:53;;;;;;;18.07;10.40;;;0.70;99.90;;;;;;5053706;28;20115;-78
2022/03/21 01:50:19;;;;;;;16.27;10.37;;;0.60;99.90;;;;;;5053974;28;20021;-78
2022/03/21 01:52:46;;;;;;;16.07;10.70;;;0.60;99.90;;;;;;5052354;28;20044;-78
2022/03/21 01:57:58;;;;;;;16.73;10.17;;;0.50;99.90;;;;;;5051772;28;20464;-78
2022/03/21 02:00:26;;;;;;;18.13;10.60;;;0.40;99.90;;;;;;5033798;28;20021;-78
2022/03/21 02:02:52;;;;;;;18.77;10.30;;;0.40;99.90;;;;;;5068333;28;20102;-78
2022/03/21 02:05:17;;;;;;;15.53;9.83;;;0.30;99.90;;;;;;5053673;28;20025;-78
2022/03/21 02:07:44;;;;;;;15.70;10.23;;;0.30;99.90;;;;;;5053358;28;20028;-78
2022/03/21 02:10:10;;;;;;;18.67;10.50;;;0.30;99.90;;;;;;5053594;28;20382;-78
2022/03/21 02:12:36;;;;;;;17.30;10.67;;;0.20;99.90;;;;;;5053973;28;20113;-78
2022/03/21 02:15:04;;;;;;;17.80;10.57;;;0.20;99.90;;;;;;5053463;28;20096;-78
2022/03/21 02:17:33;;;;;;;15.27;9.30;;;0.20;99.90;;;;;;5053559;28;20025;-78
2022/03/21 02:20:02;;;;;;;18.17;10.20;;;0.20;99.90;;;;;;5053476;28;20101;-78
2022/03/21 02:22:41;;;;;;;15.27;9.63;;;0.20;99.90;;;;;;5053275;28;20025;-78
2022/03/21 02:25:29;;;;;;;15.10;9.80;;;0.10;99.90;;;;;;5053386;28;20029;-78
2022/03/21 02:27:58;;;;;;;17.33;10.00;;;0.10;99.90;;;;;;5053140;28;20077;-78
2022/03/21 02:30:27;;;;;;;18.23;9.87;;;0.10;99.90;;;;;;5053134;28;20102;-78
2022/03/21 02:32:54;;;;;;;16.60;9.60;;;0.10;99.90;;;;;;5053111;28;20052;-78
2022/03/21 02:35:20;;;;;;;16.27;10.10;;;0.10;99.90;;;;;;5052426;28;20025;-78
2022/03/21 02:37:46;;;;;;;19.83;9.43;;;0.00;99.90;;;;;;5052881;28;20033;-78
2022/03/21 02:40:12;;;;;;;17.20;10.47;;;0.00;99.90;;;;;;5052877;28;20351;-78
2022/03/21 02:42:37;;;;;;;16.57;9.70;;;-0.10;99.90;;;;;;5053101;28;20028;-78
2022/03/21 02:45:05;;;;;;;19.17;10.47;;;0.00;99.90;;;;;;5053179;28;20029;-78
2022/03/21 02:47:30;;;;;;;16.17;9.83;;;-0.10;99.90;;;;;;5051523;28;20099;-78
2022/03/21 02:49:59;;;;;;;13.73;9.30;;;-0.10;99.90;;;;;;5051317;28;20048;-78
2022/03/21 02:52:26;;;;;;;18.10;10.63;;;-0.20;99.90;;;;;;5052754;28;20103;-78
2022/03/21 02:54:52;;;;;;;19.40;9.90;;;-0.20;99.90;;;;;;5052956;28;20094;-77
2022/03/21 02:57:17;;;;;;;17.00;9.80;;;-0.20;99.90;;;;;;5052249;28;20481;-78
2022/03/21 02:59:43;;;;;;;17.30;11.30;;;-0.30;99.90;;;;;;5045277;28;20029;-78
2022/03/21 03:02:09;;;;;;;16.80;10.13;;;-0.30;99.90;;;;;;5032691;28;20364;-78
2022/03/21 03:04:35;;;;;;;20.23;9.87;;;-0.40;99.90;;;;;;5032637;28;20429;-78
2022/03/21 03:07:01;;;;;;;16.13;9.40;;;-0.40;99.90;;;;;;5033594;28;20033;-78
2022/03/21 03:09:26;;;;;;;17.20;9.20;;;-0.50;99.90;;;;;;5050520;28;20397;-78
2022/03/21 03:11:52;;;;;;;17.73;10.27;;;-0.50;99.90;;;;;;5052822;28;20016;-78
2022/03/21 03:14:17;;;;;;;14.47;9.67;;;-0.50;99.90;;;;;;5052315;28;20543;-78
2022/03/21 03:16:43;;;;;;;16.27;10.27;;;-0.60;99.90;;;;;;5052348;28;20453;-78
2022/03/21 03:19:08;;;;;;;18.37;10.90;;;-0.60;99.90;;;;;;5052420;28;20061;-78
2022/03/21 03:21:43;;;;;;;18.43;10.40;;;-0.60;99.90;;;;;;5052323;28;20035;-78
2022/03/21 03:24:10;;;;;;;19.03;10.27;;;-0.70;99.90;;;;;;5050986;28;20432;-78
2022/03/21 03:26:36;;;;;;;19.53;10.47;;;-0.70;99.90;;;;;;5052120;28;20067;-78
2022/03/21 03:29:01;;;;;;;16.13;10.23;;;-0.70;99.90;;;;;;5052544;28;20032;-78
2022/03/21 03:31:27;;;;;;;15.80;9.23;;;-0.80;99.90;;;;;;5052255;28;20108;-78
2022/03/21 03:33:54;;;;;;;18.60;9.53;;;-0.80;99.90;;;;;;5052340;28;20021;-78
2022/03/21 03:36:21;;;;;;;15.20;9.53;;;-0.80;99.90;;;;;;5051931;28;20017;-78
2022/03/21 03:38:51;;;;;;;17.93;10.07;;;-0.90;99.90;;;;;;5052230;28;20040;-78
2022/03/21 03:41:17;;;;;;;20.47;10.53;;;-0.80;99.90;;;;;;5057470;28;20387;-78
2022/03/21 03:43:43;;;;;;;16.13;9.80;;;-0.90;99.90;;;;;;5050854;28;20060;-78
2022/03/21 03:46:09;;;;;;;18.53;10.20;;;-0.90;99.90;;;;;;5051891;28;20045;-79
2022/03/21 03:48:35;;;;;;;19.53;10.73;;;-0.90;99.90;;;;;;5050975;28;20020;-81
2022/03/21 03:51:03;;;;;;;15.63;10.07;;;-0.90;99.90;;;;;;5048402;28;20375;-81
2022/03/21 03:53:29;;;;;;;19.57;10.07;;;-0.90;99.90;;;;;;5050875;28;20071;-81
2022/03/21 03:55:54;;;;;;;18.77;10.40;;;-0.90;99.90;;;;;;5049594;28;20024;-81
2022/03/21 03:58:20;;;;;;;16.50;9.80;;;-0.90;99.90;;;;;;5048817;28;20040;-81
2022/03/21 04:00:46;;;;;;;16.60;10.47;;;-0.90;99.90;;;;;;5050280;28;20021;-81
2022/03/21 04:05:57;;;;;;;21.35;10.75;;;-0.90;99.90;;;;;;5062490;28;20035;-81
2022/03/21 04:08:22;;;;;;;16.37;9.93;;;-1.00;99.90;;;;;;5050620;28;20029;-80
2022/03/21 04:10:48;;;;;;;16.10;9.93;;;-1.00;99.90;;;;;;5065811;28;20512;-81
2022/03/21 04:13:14;;;;;;;20.47;9.93;;;-1.00;99.90;;;;;;5050459;28;20512;-81
2022/03/21 04:15:39;;;;;;;19.73;11.13;;;-1.00;99.90;;;;;;5050655;28;20417;-81
2022/03/21 04:18:05;;;;;;;19.70;10.93;;;-1.00;99.90;;;;;;5050756;28;20346;-81
2022/03/21 04:20:31;;;;;;;16.93;10.37;;;-1.10;99.90;;;;;;5052752;28;20029;-81
2022/03/21 04:23:00;;;;;;;18.47;8.83;;;-1.10;99.90;;;;;;5053250;28;20782;-81
2022/03/21 04:25:26;;;;;;;19.13;10.47;;;-1.10;99.90;;;;;;5054734;28;20029;-81
2022/03/21 04:27:52;;;;;;;21.43;11.03;;;-1.20;99.90;;;;;;5053455;28;20040;-81
2022/03/21 04:30:18;;;;;;;22.17;11.73;;;-1.20;99.90;;;;;;5053322;28;20024;-81
2022/03/21 04:32:44;;;;;;;22.37;11.50;;;-1.20;99.90;;;;;;5054974;28;20457;-81
2022/03/21 04:35:10;;;;;;;20.47;11.00;;;-1.20;99.90;;;;;;5054675;28;20028;-81
2022/03/21 04:37:37;;;;;;;21.07;11.33;;;-1.20;99.90;;;;;;5054612;28;20457;-81
2022/03/21 04:40:03;;;;;;;18.87;10.57;;;-1.20;99.90;;;;;;5054629;28;20032;-81
2022/03/21 04:42:29;;;;;;;21.10;10.80;;;-1.30;99.90;;;;;;5054896;28;20021;-81
2022/03/21 04:44:54;;;;;;;19.10;11.07;;;-1.30;99.90;;;;;;5053093;28;20082;-81
2022/03/21 04:47:21;;;;;;;19.57;11.07;;;-1.20;99.90;;;;;;5054484;28;20124;-81
2022/03/21 04:49:47;;;;;;;18.20;11.33;;;-1.30;99.90;;;;;;5054334;28;20104;-81
2022/03/21 04:52:12;;;;;;;21.07;11.40;;;-1.30;99.90;;;;;;5054200;28;20112;-81
2022/03/21 04:54:39;;;;;;;21.00;10.57;;;-1.30;99.90;;;;;;5054274;28;20070;-81
2022/03/21 04:57:06;;;;;;;17.20;10.50;;;-1.30;99.90;;;;;;5054602;28;20021;-81
2022/03/21 04:59:33;;;;;;;20.40;11.03;;;-1.30;99.90;;;;;;5050344;28;20135;-81
2022/03/21 05:01:59;;;;;;;19.20;10.27;;;-1.30;99.90;;;;;;5054047;28;20545;-81
2022/03/21 05:04:25;;;;;;;23.07;11.07;;;-1.40;99.90;;;;;;5054263;28;20100;-81
2022/03/21 05:06:51;;;;;;;18.87;10.77;;;-1.40;99.90;;;;;;5054240;28;20096;-81
2022/03/21 05:09:17;;;;;;;30.50;12.70;;;-1.40;99.90;;;;;;5053016;28;20029;-80
2022/03/21 05:11:43;;;;;;;23.20;12.63;;;-1.50;99.90;;;;;;5054717;28;20025;-80
2022/03/21 05:14:08;;;;;;;24.30;11.50;;;-1.50;99.90;;;;;;5054842;28;20021;-80
2022/03/21 05:16:34;;;;;;;24.03;11.40;;;-1.40;99.90;;;;;;5054781;28;20075;-79
2022/03/21 05:19:00;;;;;;;19.93;11.83;;;-1.50;99.90;;;;;;5053206;28;20128;-79
2022/03/21 05:21:25;;;;;;;21.50;11.20;;;-1.50;99.90;;;;;;5054857;28;20028;-80
2022/03/21 05:32:03;;;;;;;21.17;11.40;;;-1.50;99.90;;;;;;5064774;28;20063;-80
2022/03/21 05:37:13;;;;;;;18.93;10.17;;;-1.50;99.90;;;;;;5054195;28;20543;-80
2022/03/21 05:40:31;;;;;;;20.77;11.43;;;-1.50;99.90;;;;;;5070547;28;20029;-80
2022/03/21 05:42:25;;;;;;;24.52;12.77;;;-1.50;99.90;;;;;;5066636;28;20024;-80
2022/03/21 05:44:50;;;;;;;23.53;12.37;;;-1.50;99.90;;;;;;5079875;28;20021;-80
2022/03/21 05:47:16;;;;;;;23.67;12.67;;;-1.40;99.90;;;;;;5066892;28;20040;-80
2022/03/21 05:49:41;;;;;;;19.00;12.13;;;-1.40;99.90;;;;;;5065663;28;20115;-80
2022/03/21 05:52:07;;;;;;;21.83;12.93;;;-1.40;99.90;;;;;;5067613;28;20035;-80
2022/03/21 05:54:32;;;;;;;22.03;11.90;;;-1.30;99.90;;;;;;5063550;28;20077;-79
2022/03/21 05:56:58;;;;;;;20.47;12.37;;;-1.30;99.90;;;;;;5064551;28;20021;-80
2022/03/21 06:02:08;;;;;;;24.10;13.37;;;-1.20;99.90;;;;;;5068913;28;20440;-80
2022/03/21 06:04:34;;;;;;;18.00;11.13;;;-1.10;99.90;;;;;;5067098;28;20028;-78
2022/03/21 06:06:59;;;;;;;20.90;12.33;;;-1.00;99.90;;;;;;5087049;28;20016;-78
2022/03/21 06:09:25;;;;;;;20.20;11.97;;;-1.00;99.90;;;;;;5069558;28;20416;-79
2022/03/21 06:11:50;;;;;;;18.83;11.97;;;-0.90;99.90;;;;;;5063985;28;20050;-79
2022/03/21 06:14:20;;;;;;;18.63;11.43;;;-0.80;99.90;;;;;;5061734;28;20424;-80
2022/03/21 06:16:46;;;;;;;20.60;11.20;;;-0.70;99.90;;;;;;5060581;28;20064;-81
2022/03/21 06:19:11;;;;;;;24.70;12.67;;;-0.70;99.90;;;;;;5067063;28;20434;-81
2022/03/21 06:21:37;;;;;;;17.60;11.33;;;-0.60;99.90;;;;;;5060635;28;20036;-81
2022/03/21 06:24:03;;;;;;;25.10;12.33;;;-0.50;99.90;;;;;;5054755;28;20107;-80
2022/03/21 06:26:28;;;;;;;20.57;11.87;;;-0.40;99.90;;;;;;5062332;28;20112;-84
2022/03/21 06:28:56;;;;;;;20.70;12.20;;;-0.30;99.90;;;;;;5061815;28;20435;-82
2022/03/21 06:31:22;;;;;;;20.93;11.23;;;-0.20;99.90;;;;;;5066194;28;20055;-82
2022/03/21 06:33:47;;;;;;;21.43;12.53;;;-0.10;99.90;;;;;;5053723;28;20454;-80
2022/03/21 06:36:14;;;;;;;19.17;12.07;;;0.10;99.90;;;;;;5054955;28;20025;-77
2022/03/21 06:38:40;;;;;;;21.70;12.53;;;0.20;99.90;;;;;;5060824;28;20024;-80
2022/03/21 06:41:06;;;;;;;25.10;12.57;;;0.30;99.90;;;;;;5059331;28;20423;-79
2022/03/21 06:43:32;;;;;;;24.97;11.50;;;0.30;99.90;;;;;;5059957;28;20097;-79
2022/03/21 06:45:58;;;;;;;20.40;11.20;;;0.50;99.90;;;;;;5061894;28;20055;-79
2022/03/21 06:48:27;;;;;;;19.97;11.97;;;0.60;99.90;;;;;;5053295;28;20035;-79
2022/03/21 06:50:55;;;;;;;20.47;11.83;;;0.60;99.90;;;;;;5053738;28;20071;-79
2022/03/21 06:53:21;;;;;;;21.47;12.23;;;0.70;99.90;;;;;;5059565;28;20049;-79
2022/03/21 06:55:47;;;;;;;19.77;12.50;;;0.80;99.90;;;;;;5053810;28;20060;-79
2022/03/21 06:58:14;;;;;;;21.20;12.10;;;0.90;99.90;;;;;;5051685;28;20481;-79
2022/03/21 07:00:45;;;;;;;18.90;11.97;;;1.00;99.90;;;;;;5053527;28;20082;-79
2022/03/21 07:03:12;;;;;;;17.30;11.10;;;1.00;99.90;;;;;;5053134;28;20385;-79
2022/03/21 07:05:38;;;;;;;16.77;10.63;;;1.10;99.90;;;;;;5052912;28;20025;-78
2022/03/21 07:08:04;;;;;;;20.53;12.03;;;1.20;99.90;;;;;;5054193;28;20465;-77
2022/03/21 07:10:32;;;;;;;17.47;11.30;;;1.40;99.90;;;;;;5059061;28;20029;-78
2022/03/21 07:13:04;;;;;;;19.83;11.33;;;1.50;99.90;;;;;;5051878;28;20102;-80
2022/03/21 07:15:44;;;;;;;17.33;11.33;;;1.60;99.90;;;;;;5050887;28;20036;-79
2022/03/21 07:18:14;;;;;;;17.67;9.97;;;1.80;99.90;;;;;;5068263;28;20086;-79
2022/03/21 07:20:43;;;;;;;18.07;11.67;;;2.10;99.90;;;;;;5051502;28;20017;-79
2022/03/21 07:23:09;;;;;;;17.47;11.03;;;2.20;99.90;;;;;;5050439;28;20025;-78
2022/03/21 07:25:37;;;;;;;17.87;11.63;;;2.40;99.90;;;;;;5052073;28;20021;-79
2022/03/21 07:28:05;;;;;;;18.17;10.40;;;2.50;99.90;;;;;;5049743;28;20091;-78
2022/03/21 07:30:33;;;;;;;17.73;11.20;;;2.60;99.90;;;;;;5051000;28;20427;-78
2022/03/21 07:33:03;;;;;;;17.00;11.07;;;2.60;99.90;;;;;;5050593;28;20509;-78
2022/03/21 07:35:30;;;;;;;17.40;10.87;;;2.70;99.90;;;;;;5055519;28;20028;-78
2022/03/21 07:37:57;;;;;;;20.17;11.33;;;2.80;99.90;;;;;;5050153;28;20381;-78
2022/03/21 07:40:24;;;;;;;17.03;11.20;;;2.90;99.90;;;;;;5053970;28;20113;-76
2022/03/21 07:42:50;;;;;;;18.90;10.77;;;3.00;99.90;;;;;;5051718;28;20575;-83
2022/03/21 07:48:02;;;;;;;19.15;11.45;;;3.40;99.90;;;;;;5047120;28;20102;-80
2022/03/21 07:50:28;;;;;;;18.10;11.63;;;3.40;99.90;;;;;;5050550;28;20429;-82
2022/03/21 07:52:55;;;;;;;21.10;12.20;;;3.50;99.90;;;;;;5051091;28;20029;-81
2022/03/21 07:55:21;;;;;;;23.50;12.67;;;3.50;99.90;;;;;;5052247;28;20078;-81
2022/03/21 07:57:47;;;;;;;20.80;12.00;;;3.60;99.90;;;;;;5047861;28;20057;-81
2022/03/21 08:00:14;;;;;;;18.93;11.07;;;3.70;99.90;;;;;;5050406;28;20068;-81
2022/03/21 08:02:45;;;;;;;17.63;11.77;;;4.00;99.90;;;;;;5050526;28;20021;-81
2022/03/21 08:05:13;;;;;;;20.63;11.73;;;4.50;99.90;;;;;;5050061;28;20103;-81
2022/03/21 08:07:39;;;;;;;20.13;12.27;;;4.60;99.90;;;;;;5047721;28;20140;-81
2022/03/21 08:10:10;;;;;;;16.97;11.40;;;4.50;99.90;;;;;;5047482;28;20084;-78
2022/03/21 08:12:42;;;;;;;17.27;11.17;;;4.40;99.90;;;;;;5045562;28;20037;-81
2022/03/21 08:15:08;;;;;;;18.23;11.30;;;4.60;99.90;;;;;;5046297;28;20025;-81
2022/03/21 08:17:47;;;;;;;16.53;11.43;;;4.90;99.90;;;;;;5043666;28;20048;-82
2022/03/21 08:20:13;;;;;;;16.73;11.60;;;5.20;99.90;;;;;;5044480;28;20048;-81
2022/03/21 08:22:39;;;;;;;21.43;11.77;;;5.00;99.90;;;;;;5045373;28;20516;-80
2022/03/21 08:25:07;;;;;;;18.90;11.10;;;5.00;99.90;;;;;;5042333;28;20025;-78
2022/03/21 08:27:33;;;;;;;17.53;11.50;;;5.00;99.90;;;;;;5026311;28;20857;-78
2022/03/21 08:29:58;;;;;;;27.53;12.43;;;5.00;99.90;;;;;;5044116;28;20033;-78
2022/03/21 08:32:24;;;;;;;22.73;12.43;;;5.00;99.90;;;;;;5047151;28;20025;-77
2022/03/21 08:34:49;;;;;;;19.70;11.77;;;5.20;99.90;;;;;;5045447;28;20029;-77
2022/03/21 08:37:15;;;;;;;15.87;11.13;;;5.30;99.90;;;;;;5044135;28;20370;-77
2022/03/21 08:39:40;;;;;;;20.87;11.67;;;5.40;99.90;;;;;;5047115;28;20104;-77
2022/03/21 08:42:06;;;;;;;17.37;11.30;;;5.50;99.90;;;;;;5045831;28;20021;-77
2022/03/21 08:44:31;;;;;;;18.13;11.37;;;5.90;99.90;;;;;;5046846;28;20021;-77
2022/03/21 08:46:57;;;;;;;18.00;11.67;;;6.40;99.90;;;;;;5047278;28;20068;-78
2022/03/21 08:49:33;;;;;;;17.30;11.57;;;6.40;99.90;;;;;;5047328;28;20029;-78
2022/03/21 08:51:59;;;;;;;16.07;10.33;;;6.50;99.90;;;;;;5043827;28;20747;-78
2022/03/21 08:54:25;;;;;;;18.90;12.40;;;6.60;99.90;;;;;;5046762;28;20493;-76
2022/03/21 08:56:51;;;;;;;20.50;11.13;;;6.70;99.90;;;;;;5047889;28;20021;-76
2022/03/21 08:59:17;;;;;;;16.77;10.87;;;7.00;99.90;;;;;;5045185;28;20036;-77
2022/03/21 09:01:42;;;;;;;20.40;12.23;;;7.10;99.90;;;;;;5047651;28;20033;-78
2022/03/21 09:04:09;;;;;;;18.03;11.87;;;7.50;99.90;;;;;;5045734;28;20080;-78
2022/03/21 09:06:35;;;;;;;19.17;10.63;;;7.80;99.90;;;;;;5048500;28;20031;-78
2022/03/21 09:09:01;;;;;;;17.53;10.90;;;7.60;99.90;;;;;;5051865;28;20381;-78
2022/03/21 09:11:26;;;;;;;15.60;11.20;;;7.90;99.90;;;;;;5057760;28;20036;-78
2022/03/21 09:13:52;;;;;;;16.63;10.83;;;7.80;99.90;;;;;;5053203;28;20032;-78
2022/03/21 09:16:19;;;;;;;17.07;10.80;;;7.90;99.90;;;;;;5050893;28;20381;-78
2022/03/21 09:18:44;;;;;;;16.43;11.03;;;8.00;99.90;;;;;;5050029;28;20481;-79
2022/03/21 09:21:11;;;;;;;16.90;12.13;;;8.10;99.90;;;;;;5050964;28;20025;-78
2022/03/21 09:23:37;;;;;;;19.10;11.27;;;8.30;99.90;;;;;;5053364;28;20029;-76
2022/03/21 09:26:05;;;;;;;16.73;10.87;;;8.80;99.90;;;;;;5057816;28;20036;-76
2022/03/21 09:28:31;;;;;;;16.67;11.00;;;8.90;99.90;;;;;;5065799;28;20711;-77
2022/03/21 09:30:58;;;;;;;14.70;10.70;;;9.50;98.00;;;;;;5069686;28;20031;-78
2022/03/21 09:33:24;;;;;;;37.40;12.30;;;10.20;93.50;;;;;;5070962;28;20423;-77
2022/03/21 09:35:49;;;;;;;14.47;10.00;;;10.40;92.40;;;;;;5064420;28;20044;-77
2022/03/21 09:38:15;;;;;;;16.63;10.97;;;10.30;90.30;;;;;;5050917;28;20100;-78
2022/03/21 09:40:42;;;;;;;17.23;11.23;;;10.00;90.50;;;;;;5049583;28;20123;-78
2022/03/21 09:43:11;;;;;;;18.73;10.67;;;10.20;91.90;;;;;;5049532;28;20033;-77
2022/03/21 09:45:38;;;;;;;22.00;11.13;;;10.40;91.20;;;;;;5049516;28;20037;-77
2022/03/21 09:48:08;;;;;;;15.20;10.00;;;11.00;87.50;;;;;;5048658;28;20049;-77
2022/03/21 09:50:45;;;;;;;23.37;11.67;;;11.00;85.90;;;;;;5049538;28;20029;-77
2022/03/21 09:53:12;;;;;;;16.33;11.50;;;11.00;88.30;;;;;;5048356;28;20025;-77
2022/03/21 09:55:39;;;;;;;16.20;10.30;;;10.80;87.30;;;;;;5050219;28;20032;-78
2022/03/21 09:58:05;;;;;;;18.23;10.27;;;10.80;88.30;;;;;;5047592;28;20037;-79
2022/03/21 10:00:32;;;;;;;17.27;10.30;;;11.20;86.60;;;;;;5046246;28;20047;-79
2022/03/21 10:02:58;;;;;;;15.18;10.80;;;11.80;84.40;;;;;;5047432;28;20028;-79
2022/03/21 10:05:34;;;;;;;15.73;10.43;;;11.90;81.90;;;;;;5049644;28;20033;-79
2022/03/21 10:08:09;;;;;;;15.30;10.55;;;11.70;80.40;;;;;;5049650;28;20025;-79
2022/03/21 10:10:35;;;;;;;16.35;10.10;;;11.50;83.50;;;;;;5043339;28;20029;-79
2022/03/21 10:13:02;;;;;;;15.40;9.75;;;12.00;81.00;;;;;;5049462;28;20025;-79
2022/03/21 10:15:29;;;;;;;15.57;10.65;;;11.80;78.60;;;;;;5047711;28;20036;-79
2022/03/21 10:18:08;;;;;;;15.75;10.52;;;11.90;79.00;;;;;;5047250;28;20029;-79
2022/03/21 10:20:35;;;;;;;15.43;10.48;;;12.70;76.70;;;;;;5047803;28;20036;-79
2022/03/21 10:23:22;;;;;;;14.75;9.77;;;12.80;77.00;;;;;;5049442;28;20044;-79
2022/03/21 10:25:48;;;;;;;18.73;10.68;;;13.40;74.10;;;;;;5048336;28;20037;-79
2022/03/21 10:28:37;;;;;;;15.18;10.90;;;13.40;74.30;;;;;;5049154;28;20083;-79
2022/03/21 10:31:04;;;;;;;14.63;10.48;;;13.20;73.70;;;;;;5048766;28;20020;-79
2022/03/21 10:33:30;;;;;;;15.50;9.90;;;13.40;73.20;;;;;;5049062;28;20460;-79
2022/03/21 10:36:01;;;;;;;14.50;11.10;;;13.50;70.80;;;;;;5048658;28;20028;-79
2022/03/21 10:38:35;;;;;;;14.85;10.05;;;13.70;73.10;;;;;;5048631;28;20057;-79
2022/03/21 10:41:08;;;;;;;12.65;9.63;;;13.60;72.30;;;;;;5047022;28;20032;-79
2022/03/21 10:43:34;;;;;;;17.20;10.20;;;13.70;72.60;;;;;;5049122;28;20075;-80
2022/03/21 10:46:01;;;;;;;14.63;10.80;;;13.80;71.10;;;;;;5060885;28;20053;-79
2022/03/21 10:48:35;;;;;;;15.73;10.60;;;13.60;68.60;;;;;;5048724;28;20028;-79
2022/03/21 10:51:02;;;;;;;14.45;10.80;;;13.50;69.00;;;;;;5047987;28;20028;-79
2022/03/21 10:53:38;;;;;;;15.70;10.23;;;13.90;69.00;;;;;;5048686;28;20111;-79
2022/03/21 10:56:09;;;;;;;13.90;10.93;;;14.60;66.90;;;;;;5047169;28;20071;-80
2022/03/21 10:58:42;;;;;;;16.08;11.20;;;14.30;63.50;;;;;;5046340;28;20033;-79
2022/03/21 11:01:17;;;;;;;15.98;10.73;;;14.10;64.40;;;;;;5048675;28;20025;-79
2022/03/21 11:03:49;;;;;;;16.17;11.20;;;14.10;64.10;;;;;;5048698;28;20040;-79
2022/03/21 11:06:14;;;;;;;20.60;10.45;;;13.80;66.60;;;;;;5048651;28;20052;-79
2022/03/21 11:08:41;;;;;;;15.98;10.65;;;13.80;68.20;;;;;;5046876;28;20134;-79
2022/03/21 11:11:09;;;;;;;15.85;10.82;;;14.40;65.40;;;;;;5046390;28;20032;-79
2022/03/21 11:13:37;;;;;;;16.13;10.82;;;15.00;64.30;;;;;;5045548;28;20047;-79
2022/03/21 11:16:03;;;;;;;14.68;10.90;;;15.30;62.00;;;;;;5047517;28;20025;-78
2022/03/21 11:18:29;;;;;;;14.52;10.23;;;15.50;59.70;;;;;;5047769;28;20091;-79
2022/03/21 11:20:59;;;;;;;14.00;10.98;;;15.50;61.80;;;;;;5047252;28;20029;-81
2022/03/21 11:23:26;;;;;;;13.35;10.25;;;15.40;60.90;;;;;;5047794;28;20795;-81
2022/03/21 11:26:02;;;;;;;16.88;10.70;;;15.40;61.80;;;;;;5046210;28;20035;-81
2022/03/21 11:28:49;;;;;;;14.88;10.60;;;15.00;60.10;;;;;;5047682;28;20426;-81
2022/03/21 11:31:14;;;;;;;15.85;10.45;;;14.90;62.20;;;;;;5045598;28;20021;-81
2022/03/21 11:34:10;;;;;;;15.73;11.18;;;15.40;60.90;;;;;;5047145;28;20024;-81
2022/03/21 11:36:53;;;;;;;12.45;9.77;;;15.50;61.40;;;;;;5056333;28;20025;-81
2022/03/21 11:39:19;;;;;;;13.77;10.82;;;15.90;59.90;;;;;;5059954;28;20062;-81
2022/03/21 11:42:10;;;;;;;14.82;10.43;;;16.20;59.20;;;;;;5065887;28;20065;-81
2022/03/21 11:44:37;;;;;;;14.73;10.30;;;16.10;59.60;;;;;;5056234;28;20036;-81
2022/03/21 11:47:25;;;;;;;14.73;10.40;;;16.00;58.10;;;;;;5049994;28;20060;-81
2022/03/21 11:49:52;;;;;;;14.80;10.57;;;16.10;58.10;;;;;;5050574;28;20028;-82
2022/03/21 11:52:19;;;;;;;16.60;10.63;;;15.80;58.90;;;;;;5050788;28;20132;-82
2022/03/21 11:54:45;;;;;;;14.30;10.05;;;16.50;57.50;;;;;;5050592;28;20116;-81
2022/03/21 11:57:16;;;;;;;13.68;10.35;;;16.60;57.70;;;;;;5050384;28;20128;-81
2022/03/21 11:59:42;;;;;;;14.25;10.20;;;16.80;57.00;;;;;;5042366;28;20034;-82
2022/03/21 12:02:07;;;;;;;14.00;10.68;;;17.20;57.10;;;;;;5037456;28;20031;-82
2022/03/21 12:04:33;;;;;;;13.10;9.75;;;17.20;54.70;;;;;;5061739;28;20057;-81
2022/03/21 12:07:00;;;;;;;16.25;9.98;;;17.30;53.70;;;;;;5055403;28;20492;-82
2022/03/21 12:09:46;;;;;;;14.30;10.77;;;16.90;54.10;;;;;;5050186;28;20029;-82
2022/03/21 12:12:13;;;;;;;13.10;10.02;;;16.90;55.90;;;;;;5049651;28;20126;-81
2022/03/21 12:14:45;;;;;;;12.93;9.95;;;16.90;55.20;;;;;;5050431;28;20028;-82
2022/03/21 12:17:10;;;;;;;13.93;10.73;;;16.80;55.50;;;;;;5048939;28;20025;-82
2022/03/21 12:19:48;;;;;;;16.52;10.90;;;16.70;54.20;;;;;;5045963;28;20398;-81
2022/03/21 12:22:28;;;;;;;37.97;22.20;;;17.10;53.70;;;;;;5046982;28;20405;-81
2022/03/21 12:25:04;;;;;;;18.60;11.85;;;17.00;53.90;;;;;;5053222;28;20094;-81
2022/03/21 12:27:38;;;;;;;17.40;10.63;;;16.80;53.20;;;;;;5046227;28;20037;-81
2022/03/21 12:30:30;;;;;;;14.50;10.63;;;16.90;52.90;;;;;;5046036;28;20032;-81
2022/03/21 12:32:59;;;;;;;15.55;9.95;;;16.90;53.40;;;;;;5044144;28;20496;-82
2022/03/21 12:35:45;;;;;;;13.98;10.32;;;16.50;54.10;;;;;;5061572;28;20568;-82
2022/03/21 12:38:14;;;;;;;19.33;10.00;;;16.60;54.30;;;;;;5049674;28;20060;-81
2022/03/21 12:40:46;;;;;;;14.20;10.30;;;16.90;53.80;;;;;;5045594;28;20033;-82
2022/03/21 12:43:12;;;;;;;15.15;10.45;;;16.90;53.50;;;;;;5065807;28;20485;-82
2022/03/21 12:45:38;;;;;;;14.85;10.73;;;16.40;53.00;;;;;;5069497;28;20396;-82
2022/03/21 12:48:07;;;;;;;13.15;9.85;;;16.60;53.60;;;;;;5066681;28;20040;-82
2022/03/21 12:50:34;;;;;;;14.30;9.75;;;17.20;51.80;;;;;;5050900;28;20575;-82
2022/03/21 12:53:08;;;;;;;14.80;9.60;;;17.40;52.60;;;;;;5050335;28;20021;-82
2022/03/21 12:55:34;;;;;;;12.85;9.77;;;17.10;53.00;;;;;;5050241;28;20041;-82
2022/03/21 12:58:08;;;;;;;16.52;10.73;;;17.30;52.40;;;;;;5050905;28;20366;-82